Nelsonville, Wisconsin
Current Conditions -  °F | °C
As of 6:35 AM on Tuesday 27 Jan 2015 (Local Time) from KSTE Reporting Station
Haze Haze  
Wind Chill: 13°   Ceiling: 500
Heat Index: 21°   Visibility: 2.5mi
Dew Point: 20°   Wind: 6mph
Humidity: 97%   Direction: 40°NE
Pressure: 30.09"   Gusts: NA
Location:  44.49°N, 89.31°W
Report Text: KSTE 271235Z AUTO 04005KT 2 1/2SM BR OVC005 M06/M06 A3009 RMK AO2 T10611065
Loading
Personal Weather Stations






























Interactive Weather Map New forecast layout! Learn more

10-Day Weather Forecast

Advertisements
Track Severe Weather on mobile